Time;durP1;ratioP1;P1;durP2;ratioP2;P2;SDS_P1;SDS_P2;PMS_P1;PMS_P2;Temp;Humidity;BMP_temperature;BMP_pressure;BME280_temperature;BME280_humidity;BME280_pressure;Samples;Min_cycle;Max_cycle;Signal;HPM_P1;HPM_P2
2021/12/19 00:02:25;;;;;;;76.80;30.80;;;;;;;5.79;97.04;102984.81;5090251;28;20596;-45
2021/12/19 00:10:20;;;;;;;78.78;32.00;;;;;;;5.79;96.50;102990.00;5090165;28;19930;-47
2021/12/19 00:12:47;;;;;;;78.57;31.67;;;;;;;5.88;96.63;102984.41;5090516;28;20382;-47
2021/12/19 00:15:13;;;;;;;82.55;32.92;;;;;;;5.77;96.20;102982.28;5090283;28;20048;-48
2021/12/19 00:17:40;;;;;;;91.70;35.33;;;;;;;5.77;97.20;102982.28;5090629;28;20529;-49
2021/12/19 00:20:08;;;;;;;89.25;36.33;;;;;;;5.76;97.03;102975.38;5090095;28;20045;-45
2021/12/19 00:22:36;;;;;;;90.00;36.50;;;;;;;5.70;97.02;102982.59;5090291;28;20084;-45
2021/12/19 00:25:04;;;;;;;83.53;35.25;;;;;;;5.79;96.92;102984.81;5090452;28;20134;-45
2021/12/19 00:27:31;;;;;;;87.95;35.88;;;;;;;5.70;96.59;102986.06;5090585;28;20139;-47
2021/12/19 00:29:59;;;;;;;95.43;36.45;;;;;;;5.65;97.41;102983.69;5090365;28;20048;-46
2021/12/19 00:32:28;;;;;;;78.65;33.80;;;;;;;5.76;97.06;102975.38;5090243;28;20048;-45
2021/12/19 00:34:55;;;;;;;83.00;35.08;;;;;;;5.75;97.00;102978.06;5090268;28;20062;-45
2021/12/19 00:37:23;;;;;;;78.22;35.10;;;;;;;5.63;97.27;102969.91;5090043;28;20135;-48
2021/12/19 00:39:51;;;;;;;77.47;34.78;;;;;;;5.75;97.09;102959.88;5091807;28;20044;-45
2021/12/19 00:42:27;;;;;;;92.00;35.00;;;;;;;5.70;97.22;102964.44;5094407;28;20143;-48
2021/12/19 00:44:54;;;;;;;81.30;34.47;;;;;;;5.70;97.78;102961.81;5094369;28;20075;-46
2021/12/19 00:47:20;;;;;;;83.65;34.55;;;;;;;5.71;97.13;102950.53;5094018;28;20059;-46
2021/12/19 00:49:47;;;;;;;85.85;34.80;;;;;;;5.66;97.25;102955.94;5094167;28;20139;-50
2021/12/19 00:52:14;;;;;;;76.47;34.40;;;;;;;5.74;97.21;102964.22;5094415;28;20127;-49
2021/12/19 00:54:40;;;;;;;76.55;33.50;;;;;;;5.77;96.92;102965.84;5093866;28;20522;-44
2021/12/19 00:57:08;;;;;;;76.40;32.85;;;;;;;5.72;97.47;102957.41;5094157;28;20256;-44
2021/12/19 00:59:35;;;;;;;81.15;34.28;;;;;;;5.76;96.93;102957.22;5093573;28;20194;-45
2021/12/19 01:02:02;;;;;;;81.22;33.95;;;;;;;5.64;97.02;102955.19;5094201;28;20048;-43
2021/12/19 01:04:28;;;;;;;75.15;32.30;;;;;;;5.67;97.12;102953.25;5094305;28;20044;-44
2021/12/19 01:07:00;;;;;;;74.03;33.10;;;;;;;5.66;97.77;102936.00;5093842;28;20090;-44
2021/12/19 01:09:27;;;;;;;69.43;31.23;;;;;;;5.71;97.49;102942.72;5093681;28;20067;-44
2021/12/19 01:11:54;;;;;;;73.15;31.52;;;;;;;5.72;97.82;102941.81;5094105;28;20075;-44
2021/12/19 01:14:22;;;;;;;74.85;31.40;;;;;;;5.61;97.96;102944.91;5093781;28;20058;-44
2021/12/19 01:16:48;;;;;;;80.40;33.28;;;;;;;5.67;97.84;102945.47;5093957;28;20211;-43
2021/12/19 01:19:15;;;;;;;78.70;33.40;;;;;;;5.71;97.68;102945.31;5093684;28;20044;-45
2021/12/19 01:21:42;;;;;;;81.82;33.72;;;;;;;5.67;98.05;102948.06;5093564;28;20064;-45
2021/12/19 01:24:09;;;;;;;71.88;31.77;;;;;;;5.71;98.01;102950.53;5093481;28;20055;-47
2021/12/19 01:26:35;;;;;;;71.72;32.78;;;;;;;5.68;97.69;102952.34;5093560;28;20520;-45
2021/12/19 01:29:02;;;;;;;76.10;32.17;;;;;;;5.63;98.32;102943.09;5093404;28;20131;-43
2021/12/19 01:31:30;;;;;;;73.05;32.80;;;;;;;5.59;98.65;102941.53;5093332;28;20140;-44
2021/12/19 01:33:57;;;;;;;72.25;31.05;;;;;;;5.61;98.30;102939.72;5093313;28;20130;-44
2021/12/19 01:36:23;;;;;;;72.68;30.40;;;;;;;5.57;98.73;102941.63;5093769;28;20048;-51
2021/12/19 01:38:50;;;;;;;67.30;28.95;;;;;;;5.58;98.31;102945.91;5093154;28;20151;-47
2021/12/19 01:41:17;;;;;;;63.38;27.67;;;;;;;5.57;98.56;102944.22;5092938;28;20091;-50
2021/12/19 01:43:44;;;;;;;65.40;28.25;;;;;;;5.63;98.38;102943.94;5093026;28;20208;-45
2021/12/19 01:46:10;;;;;;;58.50;25.77;;;;;;;5.66;98.70;102940.38;5092837;28;20135;-46
2021/12/19 01:48:38;;;;;;;60.85;27.13;;;;;;;5.58;98.58;102930.31;5093183;28;20347;-47
2021/12/19 01:51:05;;;;;;;63.90;26.52;;;;;;;5.69;98.26;102927.22;5092284;28;20048;-45
2021/12/19 01:53:33;;;;;;;60.42;27.13;;;;;;;5.63;98.60;102917.13;5093052;28;20090;-44
2021/12/19 01:56:03;;;;;;;56.08;24.80;;;;;;;5.64;98.72;102924.84;5092427;28;20167;-48
2021/12/19 01:58:30;;;;;;;58.22;25.15;;;;;;;5.65;98.55;102918.75;5092630;28;20083;-45
2021/12/19 02:00:58;;;;;;;57.53;24.55;;;;;;;5.67;98.74;102919.50;5092711;28;20126;-45
2021/12/19 02:03:25;;;;;;;60.78;24.38;;;;;;;5.74;98.67;102908.81;5092568;28;20175;-45
2021/12/19 02:05:53;;;;;;;54.95;24.00;;;;;;;5.68;98.16;102913.38;5092493;28;20557;-45
2021/12/19 02:08:22;;;;;;;56.20;24.50;;;;;;;5.66;98.66;102915.25;5092597;28;20048;-45
2021/12/19 02:10:49;;;;;;;55.00;24.65;;;;;;;5.72;98.72;102914.09;5092627;28;20494;-44
2021/12/19 02:13:17;;;;;;;52.95;24.20;;;;;;;5.70;98.39;102907.28;5092502;28;20135;-46
2021/12/19 02:15:44;;;;;;;55.35;24.15;;;;;;;5.70;98.92;102902.06;5092414;28;20521;-46
2021/12/19 02:18:13;;;;;;;58.30;23.60;;;;;;;5.71;99.07;102901.16;5092200;28;20055;-45
2021/12/19 02:20:44;;;;;;;55.33;23.00;;;;;;;5.71;98.78;102908.97;5092171;28;20572;-44
2021/12/19 02:23:12;;;;;;;48.50;22.70;;;;;;;5.66;99.02;102911.78;5092331;28;20139;-45
2021/12/19 02:25:39;;;;;;;50.88;22.75;;;;;;;5.65;98.98;102910.94;5092404;28;20414;-45
2021/12/19 02:28:07;;;;;;;54.22;23.48;;;;;;;5.71;99.14;102909.81;5092017;28;20048;-46
2021/12/19 02:30:34;;;;;;;56.42;23.85;;;;;;;5.75;98.74;102900.13;5092287;28;20197;-47
2021/12/19 02:33:00;;;;;;;49.30;21.83;;;;;;;5.72;99.08;102906.28;5092029;28;20048;-51
2021/12/19 02:35:32;;;;;;;49.42;23.17;;;;;;;5.70;98.62;102899.47;5091909;28;20223;-45
2021/12/19 02:38:32;;;;;;;48.80;21.27;;;;;;;5.74;98.86;102891.47;5091798;28;20147;-49
2021/12/19 02:49:33;;;;;;;46.63;20.65;;;;;;;5.77;98.52;102887.91;5091625;28;20128;-47
2021/12/19 02:52:01;;;;;;;48.28;21.92;;;;;;;5.71;98.84;102885.59;5091847;28;20493;-46
2021/12/19 02:54:29;;;;;;;48.63;23.23;;;;;;;5.76;98.79;102881.03;5091733;28;20126;-50
2021/12/19 02:56:57;;;;;;;48.83;22.05;;;;;;;5.72;98.74;102884.66;5091616;28;20044;-55
2021/12/19 02:59:23;;;;;;;49.15;21.83;;;;;;;5.70;99.26;102878.69;5091109;28;20086;-45
2021/12/19 03:01:50;;;;;;;45.08;21.27;;;;;;;5.76;98.68;102883.63;5091606;28;20131;-45
2021/12/19 03:04:17;;;;;;;44.13;20.70;;;;;;;5.80;99.09;102879.97;5090766;28;20048;-44
2021/12/19 03:06:46;;;;;;;40.63;20.60;;;;;;;5.75;98.65;102877.59;5091524;28;20062;-47
2021/12/19 03:09:14;;;;;;;41.72;19.33;;;;;;;5.73;98.60;102882.00;5091409;28;20649;-44
2021/12/19 03:19:51;;;;;;;41.35;18.90;;;;;;;5.72;99.01;102866.50;5091121;28;20063;-47
2021/12/19 03:22:17;;;;;;;36.67;18.63;;;;;;;5.77;99.17;102864.53;5091246;28;20048;-46
2021/12/19 03:24:44;;;;;;;37.88;16.98;;;;;;;5.81;99.18;102863.47;5091299;28;20464;-45
2021/12/19 03:27:12;;;;;;;37.25;17.88;;;;;;;5.81;98.80;102859.13;5091153;28;20160;-45
2021/12/19 03:29:39;;;;;;;35.85;17.77;;;;;;;5.80;98.61;102864.38;5091136;28;20083;-48
2021/12/19 03:32:06;;;;;;;33.72;17.02;;;;;;;5.79;98.28;102863.53;5091321;28;20537;-48
2021/12/19 03:34:34;;;;;;;33.15;16.50;;;;;;;5.74;98.33;102862.06;5091002;28;20132;-47
2021/12/19 03:37:01;;;;;;;33.13;16.08;;;;;;;5.80;98.16;102857.44;5091024;28;20429;-45
2021/12/19 03:39:36;;;;;;;29.88;15.52;;;;;;;5.80;98.39;102851.41;5091763;28;20052;-45
2021/12/19 03:42:04;;;;;;;32.58;15.63;;;;;;;5.82;98.53;102850.41;5091133;28;20059;-45
2021/12/19 03:44:32;;;;;;;30.25;15.20;;;;;;;5.82;98.19;102841.78;5090711;28;20098;-51
2021/12/19 03:46:59;;;;;;;30.20;15.50;;;;;;;5.90;97.96;102842.28;5090587;28;20138;-46
2021/12/19 03:49:25;;;;;;;33.58;17.02;;;;;;;5.82;98.60;102836.59;5090447;28;20048;-45
2021/12/19 03:51:52;;;;;;;32.65;16.52;;;;;;;5.88;97.70;102839.75;5090868;28;20135;-44
2021/12/19 03:54:19;;;;;;;31.88;15.88;;;;;;;5.82;97.88;102833.97;5090956;28;20477;-47
2021/12/19 03:56:46;;;;;;;33.88;17.20;;;;;;;5.86;98.12;102835.53;5090789;28;20144;-49
2021/12/19 03:59:12;;;;;;;33.08;16.77;;;;;;;5.79;97.96;102836.72;5090829;28;20101;-46
2021/12/19 04:01:46;;;;;;;34.40;16.25;;;;;;;5.82;97.84;102833.97;5090654;28;20130;-47
2021/12/19 04:04:12;;;;;;;32.10;16.63;;;;;;;5.87;98.48;102832.00;5090491;28;20071;-45
2021/12/19 04:06:39;;;;;;;34.33;16.80;;;;;;;5.81;97.85;102838.34;5090323;28;20076;-46
2021/12/19 04:09:06;;;;;;;32.28;16.65;;;;;;;5.82;97.99;102831.38;5090640;28;20047;-49
2021/12/19 04:11:32;;;;;;;34.25;17.27;;;;;;;5.74;98.58;102830.88;5090766;28;20457;-48
2021/12/19 04:13:59;;;;;;;36.88;17.52;;;;;;;5.80;98.62;102821.06;5090870;28;20130;-52
2021/12/19 04:16:26;;;;;;;34.15;16.73;;;;;;;5.76;98.31;102816.91;5094537;28;20478;-48
2021/12/19 04:18:54;;;;;;;34.33;17.98;;;;;;;5.80;98.55;102813.25;5094541;28;20135;-50
2021/12/19 04:21:20;;;;;;;32.33;16.23;;;;;;;5.77;98.15;102817.75;5093911;28;20041;-47
2021/12/19 04:23:47;;;;;;;35.60;16.65;;;;;;;5.77;98.65;102815.16;5094423;28;20131;-44
2021/12/19 04:26:14;;;;;;;36.20;18.00;;;;;;;5.82;98.30;102808.00;5094889;28;20086;-46
2021/12/19 04:28:41;;;;;;;36.47;17.65;;;;;;;5.83;98.13;102792.34;5094309;28;20131;-49
2021/12/19 04:31:08;;;;;;;33.58;16.35;;;;;;;5.80;98.45;102802.03;5094704;28;20055;-50
2021/12/19 04:33:37;;;;;;;35.30;16.92;;;;;;;5.81;98.25;102773.38;5094696;28;20082;-49
2021/12/19 04:36:08;;;;;;;30.20;16.33;;;;;;;5.82;98.00;102774.22;5094408;28;20498;-47
2021/12/19 04:50:51;;;;;;;33.70;16.58;;;;;;;5.83;98.50;102778.50;5094490;28;20075;-47
2021/12/19 04:53:09;;;;;;;34.03;16.40;;;;;;;5.75;98.27;102771.06;5094138;28;20059;-49
2021/12/19 05:01:33;;;;;;;30.25;16.15;;;;;;;5.74;98.88;102769.38;5088395;28;20036;-45
2021/12/19 05:04:11;;;;;;;30.73;15.55;;;;;;;5.71;98.68;102764.34;5090257;28;20048;-49
2021/12/19 05:14:02;;;;;;;32.10;16.67;;;;;;;5.77;98.46;102768.41;5093631;28;20528;-45
2021/12/19 05:22:27;;;;;;;34.10;16.52;;;;;;;5.72;98.49;102759.97;5053170;28;20056;-77
2021/12/19 05:31:49;;;;;;;31.67;16.75;;;;;;;5.75;97.87;102739.91;4015996;22;20088;-78
2021/12/19 05:57:48;;;;;;;27.38;14.07;;;;;;;5.70;98.29;102743.63;5015068;28;20057;-76
2021/12/19 06:01:09;;;;;;;;;;;;;;;;;;;;;
2021/12/19 07:46:19;;;;;;;30.50;14.60;;;;;;;5.53;96.71;102703.75;5025105;23;20061;-46
2021/12/19 08:09:57;;;;;;;16.08;8.23;;;;;;;5.46;95.04;102681.56;4957625;28;20075;-76
2021/12/19 08:12:33;;;;;;;17.33;7.93;;;;;;;5.52;94.68;102678.69;5032894;28;20111;-75
2021/12/19 08:15:07;;;;;;;14.45;7.38;;;;;;;5.47;94.43;102666.84;5031184;28;20264;-75
2021/12/19 08:17:47;;;;;;;15.48;8.10;;;;;;;5.55;94.72;102680.28;5033524;28;20057;-76
2021/12/19 08:20:17;;;;;;;14.30;7.55;;;;;;;5.53;94.43;102684.72;5032281;28;20061;-76
2021/12/19 08:22:44;;;;;;;11.70;6.43;;;;;;;5.58;94.51;102680.16;5033448;28;20431;-77
2021/12/19 08:25:12;;;;;;;13.48;7.30;;;;;;;5.64;94.53;102679.84;5033050;28;20077;-76
2021/12/19 08:27:39;;;;;;;16.00;7.38;;;;;;;5.52;94.80;102680.44;5032845;28;20049;-75
2021/12/19 08:30:09;;;;;;;16.45;7.93;;;;;;;5.58;94.92;102670.59;5033191;28;20129;-76
2021/12/19 08:32:36;;;;;;;13.57;7.25;;;;;;;5.63;94.73;102678.19;5032376;28;20421;-75
2021/12/19 08:35:04;;;;;;;14.27;7.57;;;;;;;5.65;95.06;102682.38;5033280;28;20115;-77
2021/12/19 08:37:30;;;;;;;15.77;8.18;;;;;;;5.69;94.99;102677.84;5033592;28;20045;-76
2021/12/19 08:39:57;;;;;;;12.00;7.57;;;;;;;5.62;94.83;102661.75;5033154;28;20049;-77
2021/12/19 08:42:31;;;;;;;14.52;8.13;;;;;;;5.72;94.86;102666.47;5033404;28;20081;-77
2021/12/19 08:45:00;;;;;;;15.68;8.77;;;;;;;5.70;95.02;102663.09;5033093;28;20049;-77
2021/12/19 08:47:28;;;;;;;18.05;9.25;;;;;;;5.70;95.30;102668.31;5033265;28;20050;-77
2021/12/19 08:49:55;;;;;;;16.35;9.00;;;;;;;5.75;94.73;102667.16;5033556;28;20091;-78
2021/12/19 08:52:21;;;;;;;18.25;9.57;;;;;;;5.77;94.90;102664.50;5033418;28;20137;-77
2021/12/19 08:54:48;;;;;;;14.40;8.27;;;;;;;5.77;94.86;102660.13;5033061;28;20112;-77
2021/12/19 08:57:15;;;;;;;17.25;8.65;;;;;;;5.73;93.66;102642.19;5033548;28;20138;-76
2021/12/19 08:59:43;;;;;;;17.20;7.70;;;;;;;5.73;94.07;102662.97;5032702;28;20054;-75
2021/12/19 09:02:11;;;;;;;17.52;8.35;;;;;;;5.85;94.02;102664.97;5036694;28;20135;-75
2021/12/19 09:04:38;;;;;;;12.15;6.97;;;;;;;5.90;94.01;102668.22;5036170;28;20059;-75
2021/12/19 09:07:05;;;;;;;14.07;7.63;;;;;;;5.79;93.67;102658.31;5036471;28;20469;-75
2021/12/19 09:09:33;;;;;;;12.63;7.18;;;;;;;5.82;93.82;102658.16;5036156;28;20053;-75
2021/12/19 09:12:00;;;;;;;12.82;7.15;;;;;;;5.80;93.63;102656.53;5036397;28;20049;-75
2021/12/19 09:14:28;;;;;;;12.68;7.43;;;;;;;5.96;92.79;102660.94;5036299;28;20137;-77
2021/12/19 09:16:56;;;;;;;9.57;6.20;;;;;;;5.94;93.06;102659.34;5036398;28;20045;-75
2021/12/19 09:19:25;;;;;;;10.73;6.72;;;;;;;5.93;92.60;102649.88;5036171;28;20081;-75
2021/12/19 09:21:52;;;;;;;10.63;6.63;;;;;;;6.00;92.76;102661.63;5036525;28;20056;-75
2021/12/19 09:24:19;;;;;;;11.40;6.65;;;;;;;6.04;93.00;102662.31;5036132;28;20132;-75
2021/12/19 09:26:46;;;;;;;10.95;6.30;;;;;;;6.06;92.99;102657.91;5036023;28;20049;-75
2021/12/19 09:29:13;;;;;;;12.23;6.05;;;;;;;6.03;92.90;102648.50;5036223;28;20127;-75
2021/12/19 09:31:39;;;;;;;11.10;6.32;;;;;;;6.11;92.70;102648.94;5036448;28;20108;-75
2021/12/19 09:34:07;;;;;;;11.40;6.03;;;;;;;6.13;92.78;102657.50;5035890;28;20136;-74
2021/12/19 09:36:34;;;;;;;9.43;6.03;;;;;;;6.24;92.69;102657.78;5035883;28;20061;-74
2021/12/19 09:39:01;;;;;;;9.45;5.68;;;;;;;6.16;92.57;102657.31;5035822;28;20071;-75
2021/12/19 09:41:33;;;;;;;10.90;6.32;;;;;;;6.10;93.22;102657.66;5035737;28;20415;-75
2021/12/19 09:44:03;;;;;;;10.18;5.97;;;;;;;6.01;93.27;102655.53;5035580;28;20053;-75
2021/12/19 09:46:35;;;;;;;8.88;5.70;;;;;;;6.10;93.39;102652.47;5033994;28;20145;-75
2021/12/19 09:49:01;;;;;;;10.27;5.97;;;;;;;6.15;93.57;102654.81;5035296;28;20088;-75
2021/12/19 09:51:30;;;;;;;11.65;5.40;;;;;;;6.16;93.21;102641.72;5035589;28;20379;-75
2021/12/19 09:53:56;;;;;;;9.75;5.90;;;;;;;6.23;92.85;102653.50;5034877;28;20069;-75
2021/12/19 09:56:33;;;;;;;10.25;6.00;;;;;;;6.09;92.89;102640.38;5035080;28;20081;-77
2021/12/19 09:59:02;;;;;;;11.30;5.68;;;;;;;6.23;92.99;102634.47;5034933;28;20096;-75
2021/12/19 10:01:31;;;;;;;11.80;5.60;;;;;;;6.29;92.43;102642.78;5037090;28;20050;-76
2021/12/19 10:07:28;;;;;;;10.80;5.50;;;;;;;6.38;92.10;102633.66;5005935;28;20068;-75
2021/12/19 10:10:00;;;;;;;8.02;4.88;;;;;;;6.38;91.81;102636.28;5033541;28;20096;-76
2021/12/19 10:12:38;;;;;;;6.05;4.20;;;;;;;6.42;92.43;102619.59;5036495;28;20125;-75
2021/12/19 10:15:09;;;;;;;6.97;4.35;;;;;;;6.49;92.14;102622.72;5036789;28;20053;-74
2021/12/19 10:17:37;;;;;;;6.97;4.50;;;;;;;6.48;91.57;102605.44;5036093;28;20042;-76
2021/12/19 10:20:06;;;;;;;7.57;4.70;;;;;;;6.56;91.10;102606.72;5036672;28;20493;-76
2021/12/19 10:22:36;;;;;;;6.00;4.10;;;;;;;6.62;91.63;102608.09;5037205;28;20128;-77
2021/12/19 10:25:21;;;;;;;7.70;4.47;;;;;;;6.62;91.61;102608.94;5037466;28;20123;-74
2021/12/19 10:27:51;;;;;;;7.18;4.47;;;;;;;6.68;90.92;102591.34;5035310;28;20045;-75
2021/12/19 10:30:27;;;;;;;7.28;4.63;;;;;;;6.77;91.01;102596.03;5037145;28;20053;-75
2021/12/19 10:32:57;;;;;;;8.32;5.10;;;;;;;6.79;91.20;102597.66;5037094;28;20052;-74
2021/12/19 10:35:27;;;;;;;6.10;4.35;;;;;;;6.64;91.18;102588.06;5036181;28;20054;-74
2021/12/19 10:37:56;;;;;;;7.03;4.57;;;;;;;6.68;91.69;102597.38;5035879;28;20133;-75
2021/12/19 10:40:24;;;;;;;6.35;4.28;;;;;;;6.62;91.46;102582.94;5035640;28;20045;-75
2021/12/19 10:42:58;;;;;;;6.45;4.40;;;;;;;6.52;91.57;102581.78;5035024;28;20045;-76
2021/12/19 10:45:33;;;;;;;6.80;4.57;;;;;;;6.62;91.41;102582.09;5034765;28;20045;-74
2021/12/19 10:48:21;;;;;;;7.80;3.95;;;;;;;6.62;92.03;102577.72;5035413;28;20080;-75
2021/12/19 10:50:58;;;;;;;7.05;4.30;;;;;;;6.62;91.25;102575.13;5036228;28;20081;-75
2021/12/19 10:53:30;;;;;;;8.77;5.60;;;;;;;6.50;91.63;102548.97;5035245;28;20041;-74
2021/12/19 10:55:58;;;;;;;;;;;;;;;6.69;91.52;102567.84;5035311;28;20065;-74
2021/12/19 10:58:30;;;;;;;8.43;4.82;;;;;;;6.52;92.01;102560.13;5035981;28;20311;-77
2021/12/19 11:01:06;;;;;;;5.65;4.25;;;;;;;6.48;92.72;102545.63;5037004;28;20053;-76
2021/12/19 11:03:40;;;;;;;6.55;4.40;;;;;;;6.52;92.36;102554.94;5036739;28;20049;-75
2021/12/19 11:06:18;;;;;;;6.03;4.32;;;;;;;6.52;92.56;102544.53;5034715;28;20115;-76
2021/12/19 11:08:46;;;;;;;7.22;4.28;;;;;;;6.57;92.53;102545.13;5034648;28;20164;-76
2021/12/19 11:11:30;;;;;;;6.88;4.40;;;;;;;6.60;92.71;102540.59;5034734;28;20385;-75
2021/12/19 11:13:56;;;;;;;7.60;4.60;;;;;;;6.53;92.64;102535.81;5034096;28;20124;-76
2021/12/19 11:16:29;;;;;;;7.65;5.10;;;;;;;6.50;93.01;102526.41;5033411;28;20081;-77
2021/12/19 11:18:56;;;;;;;7.80;5.43;;;;;;;6.56;92.72;102526.06;5036559;28;20407;-76
2021/12/19 11:21:36;;;;;;;8.27;5.65;;;;;;;6.56;92.86;102527.84;5037709;28;20072;-77
2021/12/19 11:24:08;;;;;;;8.65;5.65;;;;;;;6.65;93.30;102527.31;5039131;28;20057;-76
2021/12/19 11:26:38;;;;;;;10.82;5.80;;;;;;;6.58;93.60;102518.19;5039995;28;20045;-77
2021/12/19 11:32:33;;;;;;;11.55;5.65;;;;;;;6.54;93.32;102501.91;5033361;28;20066;-76
2021/12/19 11:35:07;;;;;;;8.73;5.70;;;;;;;6.56;93.40;102505.25;5031758;28;20323;-77
2021/12/19 11:37:37;;;;;;;8.43;5.85;;;;;;;6.70;92.79;102499.28;5034258;28;20049;-77
2021/12/19 11:40:09;;;;;;;9.48;6.05;;;;;;;6.72;92.21;102494.00;5034117;28;20049;-76
2021/12/19 11:42:37;;;;;;;8.90;5.68;;;;;;;6.77;92.09;102486.78;5034723;28;20124;-76
2021/12/19 11:45:30;;;;;;;7.93;5.80;;;;;;;6.74;91.17;102487.78;5033994;28;20077;-76
2021/12/19 11:48:01;;;;;;;10.57;6.38;;;;;;;6.79;91.64;102493.56;5034446;28;20050;-76
2021/12/19 11:50:30;;;;;;;9.43;7.03;;;;;;;6.68;92.29;102480.31;5034335;28;20045;-78
2021/12/19 11:53:00;;;;;;;12.82;7.00;;;;;;;6.59;92.77;102467.84;5034937;28;20041;-75
2021/12/19 11:55:37;;;;;;;11.52;7.05;;;;;;;6.63;93.72;102474.53;5034607;28;20087;-75
2021/12/19 11:58:28;;;;;;;11.75;7.38;;;;;;;6.69;93.24;102479.38;5034608;28;20084;-75
2021/12/19 12:01:06;;;;;;;10.27;6.43;;;;;;;6.63;93.47;102477.97;5034616;28;20076;-75
2021/12/19 12:03:43;;;;;;;10.27;6.38;;;;;;;6.55;92.87;102459.38;5034002;28;20038;-77
2021/12/19 12:06:36;;;;;;;13.85;8.10;;;;;;;6.71;92.80;102469.75;5032488;28;20054;-76
2021/12/19 12:09:25;;;;;;;11.88;7.38;;;;;;;6.60;93.27;102470.38;5048026;23;20355;-78
2021/12/19 12:12:19;;;;;;;8.95;6.03;;;;;;;6.66;92.84;102470.00;5043131;28;20360;-77
2021/12/19 12:15:05;;;;;;;8.95;5.80;;;;;;;6.61;93.29;102466.84;5036464;28;20141;-78
2021/12/19 12:17:43;;;;;;;10.02;5.88;;;;;;;6.62;93.55;102458.06;5035033;28;20041;-79
2021/12/19 12:20:22;;;;;;;9.27;6.40;;;;;;;6.67;93.30;102463.03;5037361;28;20522;-80
2021/12/19 12:22:58;;;;;;;9.18;6.13;;;;;;;6.66;93.15;102459.59;5040573;28;20052;-79
2021/12/19 12:25:34;;;;;;;9.65;6.13;;;;;;;6.63;93.24;102453.72;5034725;28;20091;-80
2021/12/19 12:28:07;;;;;;;10.20;5.90;;;;;;;6.73;93.52;102452.28;5033664;28;20041;-79
2021/12/19 12:30:39;;;;;;;10.95;6.38;;;;;;;6.65;93.76;102446.66;5032887;28;20045;-80
2021/12/19 12:33:18;;;;;;;9.32;6.63;;;;;;;6.64;93.04;102439.78;5041548;28;20071;-79
2021/12/19 12:35:47;;;;;;;9.50;6.10;;;;;;;6.61;92.44;102443.44;5042682;28;20068;-78
2021/12/19 12:38:14;;;;;;;9.50;6.13;;;;;;;6.59;92.82;102432.28;5041159;28;20061;-80
2021/12/19 12:40:50;;;;;;;9.48;6.55;;;;;;;6.73;92.35;102431.47;5037553;28;20118;-78
2021/12/19 12:43:20;;;;;;;10.35;6.68;;;;;;;6.62;93.17;102431.22;5037575;28;20434;-78
2021/12/19 12:46:07;;;;;;;9.45;6.78;;;;;;;6.61;93.46;102429.59;5038514;28;20052;-78
2021/12/19 12:48:39;;;;;;;10.48;7.20;;;;;;;6.61;93.61;102413.97;5038717;28;20069;-78
2021/12/19 12:51:09;;;;;;;11.55;7.45;;;;;;;6.61;93.41;102420.00;5039495;28;20077;-78
2021/12/19 12:53:40;;;;;;;11.68;7.88;;;;;;;6.51;93.81;102412.81;5041278;28;20041;-78
2021/12/19 12:56:11;;;;;;;10.50;6.80;;;;;;;6.49;93.42;102409.47;5041696;28;20041;-78
2021/12/19 12:58:50;;;;;;;13.65;6.63;;;;;;;6.49;93.89;102404.25;5037635;28;20050;-77
2021/12/19 13:01:52;;;;;;;8.57;5.88;;;;;;;6.41;93.25;102390.84;5037885;28;20072;-80
2021/12/19 13:04:21;;;;;;;8.63;5.88;;;;;;;6.51;92.83;102407.63;5037124;28;20053;-78
2021/12/19 13:06:57;;;;;;;7.35;5.53;;;;;;;6.33;92.46;102384.31;5038020;28;20113;-79
2021/12/19 13:09:33;;;;;;;8.02;5.18;;;;;;;6.41;91.95;102409.03;5039220;28;20068;-79
2021/12/19 13:12:12;;;;;;;8.25;5.40;;;;;;;6.33;91.61;102399.91;5040014;28;20049;-79
2021/12/19 13:14:47;;;;;;;7.68;5.43;;;;;;;6.47;92.01;102391.34;5043369;28;20053;-79
2021/12/19 13:17:21;;;;;;;7.40;4.82;;;;;;;6.46;91.76;102389.66;5038469;28;20045;-80
2021/12/19 13:19:57;;;;;;;7.68;5.53;;;;;;;6.52;91.49;102381.50;5054674;23;20102;-49
2021/12/19 13:22:28;;;;;;;6.75;4.60;;;;;;;6.42;92.26;102376.91;5048707;28;20081;-47
2021/12/19 13:24:57;;;;;;;8.25;4.95;;;;;;;6.38;91.63;102388.41;5039434;28;20111;-45
2021/12/19 13:27:27;;;;;;;7.15;4.47;;;;;;;6.36;91.41;102380.69;5033831;28;20049;-48
2021/12/19 13:30:11;;;;;;;7.38;4.95;;;;;;;6.28;91.36;102375.94;5033477;28;20505;-45
2021/12/19 13:32:44;;;;;;;5.53;4.07;;;;;;;6.38;91.90;102380.63;5034269;28;20152;-45
2021/12/19 13:35:15;;;;;;;;;;;;;;;6.36;91.74;102374.66;5036937;28;20050;-47
2021/12/19 13:38:09;;;;;;;6.38;4.30;;;;;;;6.40;92.19;102373.56;5031525;28;19979;-47
2021/12/19 13:40:40;;;;;;;5.25;3.90;;;;;;;6.38;91.94;102370.22;5035993;28;20128;-46
2021/12/19 13:43:12;;;;;;;5.75;4.20;;;;;;;6.26;91.65;102380.38;5033767;28;20135;-45
2021/12/19 13:45:50;;;;;;;5.63;3.80;;;;;;;6.27;91.10;102374.25;5033078;28;20061;-47
2021/12/19 13:48:23;;;;;;;6.22;4.30;;;;;;;6.27;91.43;102378.59;5031737;28;20133;-45
2021/12/19 13:50:54;;;;;;;5.22;3.75;;;;;;;6.38;91.04;102372.81;5031512;28;20049;-47
2021/12/19 13:53:32;;;;;;;5.07;3.97;;;;;;;6.32;90.70;102376.59;5039180;28;20085;-46
2021/12/19 13:56:03;;;;;;;6.82;3.67;;;;;;;6.25;91.23;102365.69;5002442;28;20088;-45
2021/12/19 13:58:32;;;;;;;4.70;3.50;;;;;;;6.36;92.06;102367.69;5032999;28;20133;-45
2021/12/19 14:01:11;;;;;;;5.70;3.90;;;;;;;6.29;91.49;102372.41;5033097;28;20095;-43
2021/12/19 14:03:43;;;;;;;7.43;4.50;;;;;;;6.37;91.78;102368.53;5033521;28;20107;-45
2021/12/19 14:06:12;;;;;;;5.43;4.00;;;;;;;6.36;91.71;102357.28;5028785;28;20132;-45
2021/12/19 14:08:42;;;;;;;5.45;3.67;;;;;;;6.23;91.97;102362.34;5030207;28;20041;-48
2021/12/19 14:11:14;;;;;;;5.00;3.92;;;;;;;6.28;91.65;102369.88;5020805;28;20180;-48
2021/12/19 14:13:44;;;;;;;6.57;3.83;;;;;;;6.21;91.95;102365.94;5013338;28;20049;-46
2021/12/19 14:16:31;;;;;;;5.97;3.83;;;;;;;6.22;92.38;102363.25;5016167;28;20054;-49
2021/12/19 14:27:50;;;;;;;5.03;4.18;;;;;;;6.09;93.23;102338.06;5020004;28;20060;-81
2021/12/19 14:30:19;;;;;;;4.60;3.88;;;;;;;6.06;93.29;102335.63;5072149;28;20107;-81
2021/12/19 14:35:39;;;;;;;5.75;4.10;;;;;;;6.16;92.15;102340.22;5070621;28;20048;-82
2021/12/19 14:38:11;;;;;;;3.78;3.35;;;;;;;6.15;92.05;102348.94;5075991;28;20082;-80
2021/12/19 14:40:42;;;;;;;6.23;3.50;;;;;;;6.14;91.88;102336.88;5076087;28;20668;-81
2021/12/19 14:43:16;;;;;;;7.10;3.35;;;;;;;6.15;92.42;102338.53;5072791;28;20040;-80
2021/12/19 14:45:45;;;;;;;4.18;3.55;;;;;;;6.12;92.45;102323.13;5063077;28;20044;-80
2021/12/19 14:48:20;;;;;;;4.95;4.00;;;;;;;6.08;92.44;102332.03;5075746;28;20045;-79
2021/12/19 14:50:52;;;;;;;5.47;3.70;;;;;;;6.14;92.40;102342.09;5075572;28;20068;-80
2021/12/19 14:53:35;;;;;;;4.93;4.07;;;;;;;6.11;93.09;102326.66;5095767;28;20070;-81
2021/12/19 14:56:41;;;;;;;;;;;;;;;;;;;;;
2021/12/19 14:59:20;;;;;;;5.85;4.35;;;;;;;5.95;92.51;102311.06;5098118;28;20429;-80
2021/12/19 15:02:13;;;;;;;7.85;4.70;;;;;;;6.11;92.14;102342.25;5095907;28;20138;-81
2021/12/19 15:07:44;;;;;;;7.30;5.43;;;;;;;6.06;93.52;102330.44;5072838;28;20040;-80
2021/12/19 15:10:18;;;;;;;9.68;5.20;;;;;;;6.11;93.39;102331.84;5095948;28;20056;-81
2021/12/19 15:12:45;;;;;;;8.45;6.00;;;;;;;6.02;93.47;102337.56;5095407;28;20044;-78
2021/12/19 15:15:16;;;;;;;12.20;6.10;;;;;;;6.01;94.00;102324.66;5094708;28;20080;-80
2021/12/19 15:17:46;;;;;;;9.02;6.38;;;;;;;5.91;94.02;102293.97;5089304;28;20089;-80
2021/12/19 15:20:16;;;;;;;9.43;6.13;;;;;;;5.98;94.20;102315.25;5094464;28;20056;-79
2021/12/19 15:22:43;;;;;;;9.38;6.32;;;;;;;5.97;94.14;102309.22;5094862;28;20435;-79
2021/12/19 15:25:11;;;;;;;11.90;6.68;;;;;;;6.09;93.60;102320.72;5095148;28;20056;-79
2021/12/19 15:27:51;;;;;;;10.45;7.15;;;;;;;5.97;93.90;102306.63;5095330;28;20356;-79
2021/12/19 15:30:19;;;;;;;10.25;6.80;;;;;;;5.83;94.44;102284.91;5094246;28;20071;-78
2021/12/19 15:32:52;;;;;;;9.82;6.80;;;;;;;6.01;94.24;102312.50;5095215;28;20113;-80
2021/12/19 15:35:24;;;;;;;9.93;7.35;;;;;;;5.90;94.61;102307.91;5094516;28;20067;-78